Flight Track Log - Related Links

Times and Time Zones

All times are in EDT time to prevent confusion due to time zone crossing. See the N7724Q flight status page for this flight to view local times or setup timezone preferences in your user account.

Time Position Orientation Groundspeed Altitude Reporting Facility
EDT Latitude Longitude Course Direction KTS MPH feet Rate Location/Type
Sun 09:33:00 PM 32.7568 -80.6859 355° North  Level FlightAware Approximate
Sun 09:34:00 PM 32.8081 -80.6916 355° North  Level FlightAware Approximate
Sun 09:35:00 PM 32.8594 -80.6973 355° North  Level FlightAware Approximate
Sun 09:36:00 PM 32.9105 -80.7057 350° North  Level FlightAware Approximate
Sun 09:37:00 PM 32.9613 -80.7164 350° North  Level FlightAware Approximate
Sun 09:38:00 PM 33.0121 -80.7270 350° North  Level FlightAware Approximate
Sun 09:39:00 PM 33.0628 -80.7377 350° North  Level FlightAware Approximate
Sun 09:40:00 PM 33.1136 -80.7484 350° North  Level FlightAware Approximate
Sun 09:41:00 PM 33.1644 -80.7591 350° North  Level FlightAware Approximate
Sun 09:42:00 PM 33.2153 -80.7688 353° North  Level FlightAware Approximate
Sun 09:43:00 PM 33.2665 -80.7761 353° North  Level FlightAware Approximate
Sun 09:44:00 PM 33.3177 -80.7834 353° North  Level FlightAware Approximate
Sun 09:45:00 PM 33.3689 -80.7907 353° North  Level FlightAware Approximate
Sun 09:46:00 PM 33.4201 -80.7980 353° North  Level FlightAware Approximate
Sun 09:47:00 PM 33.4713 -80.8053 353° North  Level FlightAware Approximate
Sun 09:48:00 PM 33.5225 -80.8126 353° North  Level FlightAware Approximate
Sun 09:49:00 PM 33.5737 -80.8199 353° North  Level FlightAware Approximate
Sun 09:50:00 PM 33.6249 -80.8273 353° North  Level FlightAware Approximate
Sun 09:51:00 PM 33.6761 -80.8346 353° North  Level FlightAware Approximate
Sun 09:52:00 PM 33.7273 -80.8419 353° North  Level FlightAware Approximate
Sun 09:53:00 PM 33.7785 -80.8493 353° North  Level FlightAware Approximate
Sun 09:54:00 PM 33.8296 -80.8580 352° North  Level FlightAware Approximate
Sun 09:55:00 PM 33.8806 -80.8668 352° North  Level FlightAware Approximate
Sun 09:56:00 PM 33.9317 -80.8756 352° North  Level FlightAware Approximate
Sun 09:57:00 PM 33.9827 -80.8844 352° North  Level FlightAware Approximate
Sun 09:58:00 PM 34.0338 -80.8933 352° North  Level FlightAware Approximate
Sun 09:59:00 PM 34.0848 -80.9021 352° North  Level FlightAware Approximate
Sun 10:00:00 PM 34.1358 -80.9110 352° North  Level FlightAware Approximate
Sun 10:01:00 PM 34.1869 -80.9199 352° North  Level FlightAware Approximate
Sun 10:02:00 PM 34.2379 -80.9288 352° North  Level FlightAware Approximate
Sun 10:03:00 PM 34.2890 -80.9377 352° North  Level FlightAware Approximate
Sun 10:04:00 PM 34.3400 -80.9466 352° North  Level FlightAware Approximate
Sun 10:05:00 PM 34.3910 -80.9555 352° North  Level FlightAware Approximate
Sun 10:06:00 PM 34.4399 -80.9640 352° North  Level FlightAware Approximate
Sun 10:06:06 PM 34.4572 -80.9703 351° North 189 217 6,200  Level Atlanta Center
Sun 10:06:43 PM 34.4844 -80.9719 357° North 184 212 6,200  Level Atlanta Center
Sun 10:07:00 PM 34.4888 -80.9726 352° North  Level FlightAware Approximate
Sun 10:07:37 PM 34.5283 -80.9831 348° North 179 206 6,200  Level Atlanta Center
Sun 10:08:00 PM 34.5378 -80.9812 352° North  Level FlightAware Approximate
Sun 10:08:38 PM 34.5808 -80.9911 353° North 187 215 5,800  Level Atlanta Center
Sun 10:09:00 PM 34.5866 -80.9902 351° North  Level FlightAware Approximate
Sun 10:09:51 PM 34.6339 -81.0319 328° Northwest 184 212 5,700  Level Atlanta Center
Sun 10:10:00 PM 34.6354 -80.9994 351° North  Level FlightAware Approximate
Sun 10:10:39 PM 34.6558 -81.0742 302° West 185 213 5,300  Level Atlanta Center
Sun 10:11:00 PM 34.6843 -81.0086 351° North  Level FlightAware Approximate
Sun 10:11:34 PM 34.6633 -81.1269 280° West 188 216 4,600  Level Atlanta Center
Sun 10:12:34 PM 34.6981 -81.1839 307° West 200 230 4,100 -236 Descending Atlanta Center
Sun 10:13:41 PM 34.7508 -81.2072 340° North 188 216 4,100 -45 Level Atlanta Center
Sun 10:14:48 PM 34.8075 -81.2156 353° North 185 213 4,000 -45 Descending Atlanta Center
Sun 10:15:54 PM 34.8661 -81.2236 354° North 187 215 4,000  Level Atlanta Center
Sun 10:16:55 PM 34.9183 -81.2347 350° North 186 214 4,000 103 Level Atlanta Center
Sun 10:17:50 PM 34.9667 -81.2431 352° North 185 213 4,200 104 Climbing Atlanta Center
Sun 10:18:50 PM 35.0186 -81.2414 North 190 219 4,200 -58 Level Atlanta Center
Sun 10:19:33 PM 35.0542 -81.2378 North 190 219 4,100 -52 Descending Atlanta Center
Sun 10:20:45 PM 35.1189 -81.2381 360° North 193 222 4,100  Level Atlanta Center
Sun 10:21:40 PM 35.1711 -81.2389 359° North 192 221 4,100  Level Atlanta Center
Sun 10:22:41 PM 35.2231 -81.2394 359° North 190 219 4,100  Level Atlanta Center

Login

Don't have an account? Register now (free) for customized features, flight alerts, and more!